createdAt,value
2024-05-09T00:00:06.406Z,108.55
2024-05-09T00:01:04.160Z,163.06
2024-05-09T00:02:04.080Z,226.70
2024-05-09T00:03:04.117Z,289.89
2024-05-09T00:04:04.209Z,186.19
2024-05-09T00:05:04.316Z,169.37
2024-05-09T00:06:04.244Z,155.40
2024-05-09T00:07:04.100Z,144.06
2024-05-09T00:08:04.138Z,134.39
2024-05-09T00:09:04.097Z,124.69
2024-05-09T00:10:05.538Z,117.60
2024-05-09T00:11:04.262Z,115.36
2024-05-09T00:12:04.150Z,107.55
2024-05-09T00:13:04.098Z,102.31
2024-05-09T00:14:04.226Z,97.60
2024-05-09T00:15:04.099Z,94.45
2024-05-09T00:16:04.104Z,89.95
2024-05-09T00:17:04.139Z,86.95
2024-05-09T00:18:04.777Z,84.14
2024-05-09T00:19:04.204Z,81.54
2024-05-09T00:20:09.096Z,80.67
2024-05-09T00:21:04.316Z,80.67
2024-05-09T00:22:04.114Z,78.68
2024-05-09T00:23:04.139Z,76.51
2024-05-09T00:24:04.123Z,74.47
2024-05-09T00:25:04.123Z,73.23
2024-05-09T00:26:04.145Z,69.16
2024-05-09T00:27:04.119Z,68.42
2024-05-09T00:28:04.123Z,68.95
2024-05-09T00:29:04.188Z,66.17
2024-05-09T00:30:04.397Z,65.12
2024-05-09T00:31:04.164Z,64.62
2024-05-09T00:32:04.276Z,63.60
2024-05-09T00:33:05.132Z,62.66
2024-05-09T00:34:04.247Z,62.37
2024-05-09T00:35:04.208Z,61.76
2024-05-09T00:36:04.144Z,61.92
2024-05-09T00:37:04.158Z,60.39
2024-05-09T00:38:04.604Z,60.42
2024-05-09T00:39:04.149Z,59.37
2024-05-09T00:40:05.827Z,59.58
2024-05-09T00:41:04.167Z,59.59
2024-05-09T00:42:04.157Z,58.31
2024-05-09T00:43:04.141Z,57.75
2024-05-09T00:44:04.166Z,57.89
2024-05-09T00:45:04.150Z,56.13
2024-05-09T00:46:04.180Z,55.97
2024-05-09T00:47:04.243Z,55.83
2024-05-09T00:48:04.522Z,54.85
2024-05-09T00:49:04.269Z,54.64
2024-05-09T00:50:05.599Z,54.41
2024-05-09T00:51:04.183Z,54.46
2024-05-09T00:52:04.176Z,54.52
2024-05-09T00:53:04.222Z,54.58
2024-05-09T00:54:04.174Z,53.98
2024-05-09T00:55:04.189Z,53.09
2024-05-09T00:56:04.230Z,53.81
2024-05-09T00:57:04.179Z,51.55
2024-05-09T00:58:04.176Z,52.70
2024-05-09T00:59:04.207Z,53.11
2024-05-09T01:00:06.117Z,51.30
2024-05-09T01:01:04.244Z,51.41
2024-05-09T01:02:04.328Z,51.59
2024-05-09T01:03:04.432Z,51.59
2024-05-09T01:04:04.289Z,51.55
2024-05-09T01:05:04.275Z,51.31
2024-05-09T01:06:04.223Z,50.00
2024-05-09T01:07:04.196Z,50.42
2024-05-09T01:08:04.217Z,50.88
2024-05-09T01:09:04.187Z,50.58
2024-05-09T01:10:07.035Z,51.58
2024-05-09T01:11:04.325Z,51.69
2024-05-09T01:12:04.368Z,52.05
2024-05-09T01:13:04.478Z,52.39
2024-05-09T01:14:04.247Z,52.24
2024-05-09T01:15:04.214Z,51.40
2024-05-09T01:16:04.205Z,52.78
2024-05-09T01:17:04.385Z,51.68
2024-05-09T01:18:04.435Z,50.57
2024-05-09T01:19:04.594Z,51.61
2024-05-09T01:20:06.319Z,50.00
2024-05-09T01:21:04.313Z,50.11
2024-05-09T01:22:04.228Z,50.50
2024-05-09T01:23:04.369Z,50.57
2024-05-09T01:24:04.224Z,51.06
2024-05-09T01:25:04.215Z,51.70
2024-05-09T01:26:04.264Z,52.10
2024-05-09T01:27:04.227Z,50.25
2024-05-09T01:28:04.327Z,50.71
2024-05-09T01:29:04.321Z,50.94
2024-05-09T01:30:09.122Z,51.15
2024-05-09T01:31:04.245Z,51.24
2024-05-09T01:32:04.418Z,51.45
2024-05-09T01:33:04.968Z,51.91
2024-05-09T01:34:04.340Z,52.63
2024-05-09T01:35:04.357Z,52.06
2024-05-09T01:36:04.348Z,52.31
2024-05-09T01:37:04.384Z,51.82
2024-05-09T01:38:04.574Z,52.39
2024-05-09T01:39:04.453Z,52.08
2024-05-09T01:40:07.351Z,51.61
2024-05-09T01:41:04.566Z,51.68
2024-05-09T01:42:04.484Z,51.80
2024-05-09T01:43:04.535Z,52.11
2024-05-09T01:44:04.572Z,52.65
2024-05-09T01:45:04.488Z,52.00
2024-05-09T01:46:04.502Z,51.02
2024-05-09T01:47:04.592Z,50.47
2024-05-09T01:48:04.932Z,51.21
2024-05-09T01:49:04.648Z,51.08
2024-05-09T01:50:06.792Z,51.80
2024-05-09T01:51:04.572Z,51.88
2024-05-09T01:52:04.499Z,51.97
2024-05-09T01:53:04.572Z,52.07
2024-05-09T01:54:04.508Z,52.62
2024-05-09T01:55:06.497Z,50.59
2024-05-09T01:56:04.575Z,52.50
2024-05-09T01:57:04.504Z,52.17
2024-05-09T01:58:04.530Z,51.48
2024-05-09T01:59:04.537Z,51.18
2024-05-09T02:00:06.032Z,50.33
2024-05-09T02:01:04.556Z,50.44
2024-05-09T02:02:04.656Z,50.58
2024-05-09T02:03:04.754Z,50.93
2024-05-09T02:04:04.812Z,50.79
2024-05-09T02:05:04.615Z,51.85
2024-05-09T02:06:04.668Z,51.56
2024-05-09T02:07:04.514Z,51.36
2024-05-09T02:08:04.615Z,50.62
2024-05-09T02:09:04.527Z,51.67
2024-05-09T02:10:10.832Z,51.79
2024-05-09T02:11:04.596Z,51.88
2024-05-09T02:12:04.661Z,52.26
2024-05-09T02:13:04.529Z,52.54
2024-05-09T02:14:04.608Z,51.96
2024-05-09T02:15:04.533Z,52.00
2024-05-09T02:16:04.574Z,52.12
2024-05-09T02:17:04.579Z,51.11
2024-05-09T02:18:04.812Z,51.51
2024-05-09T02:19:04.682Z,51.85
2024-05-09T02:20:06.046Z,51.50
2024-05-09T02:21:04.810Z,53.04
2024-05-09T02:22:04.766Z,51.55
2024-05-09T02:23:05.364Z,51.38
2024-05-09T02:24:04.771Z,50.85
2024-05-09T02:25:04.769Z,51.83
2024-05-09T02:26:04.852Z,50.39
2024-05-09T02:27:04.798Z,51.89
2024-05-09T02:28:04.874Z,51.40
2024-05-09T02:29:05.006Z,52.47
2024-05-09T02:30:09.930Z,51.22
2024-05-09T02:31:05.082Z,51.31
2024-05-09T02:32:05.145Z,51.66
2024-05-09T02:33:05.282Z,51.38
2024-05-09T02:34:05.326Z,52.93
2024-05-09T02:35:05.158Z,52.79
2024-05-09T02:36:05.096Z,52.00
2024-05-09T02:37:05.079Z,51.60
2024-05-09T02:38:05.236Z,51.62
2024-05-09T02:39:05.078Z,51.39
2024-05-09T02:40:05.757Z,51.55
2024-05-09T02:41:05.132Z,51.47
2024-05-09T02:42:05.080Z,52.15
2024-05-09T02:43:05.380Z,52.01
2024-05-09T02:44:05.131Z,51.33
2024-05-09T02:45:05.074Z,51.67
2024-05-09T02:46:05.086Z,51.33
2024-05-09T02:47:05.140Z,51.70
2024-05-09T02:48:05.355Z,51.80
2024-05-09T02:49:05.182Z,50.66
2024-05-09T02:50:06.216Z,50.83
2024-05-09T02:51:05.198Z,50.88
2024-05-09T02:52:05.089Z,51.12
2024-05-09T02:53:05.362Z,51.12
2024-05-09T02:54:05.101Z,52.17
2024-05-09T02:55:05.090Z,51.71
2024-05-09T02:56:05.115Z,52.47
2024-05-09T02:57:05.083Z,51.67
2024-05-09T02:58:05.098Z,51.22
2024-05-09T02:59:05.156Z,51.87
2024-05-09T03:00:07.657Z,51.33
2024-05-09T03:01:05.139Z,51.35
2024-05-09T03:02:05.171Z,51.86
2024-05-09T03:03:05.281Z,51.71
2024-05-09T03:04:05.218Z,51.57
2024-05-09T03:05:05.176Z,52.17
2024-05-09T03:06:05.110Z,52.49
2024-05-09T03:07:05.102Z,51.46
2024-05-09T03:08:05.198Z,51.32
2024-05-09T03:09:05.109Z,52.36
2024-05-09T03:10:11.806Z,51.03
2024-05-09T03:11:05.341Z,51.16
2024-05-09T03:12:05.208Z,51.61
2024-05-09T03:13:05.123Z,52.28
2024-05-09T03:14:05.227Z,52.20
2024-05-09T03:15:05.114Z,52.35
2024-05-09T03:16:05.148Z,52.36
2024-05-09T03:17:05.144Z,52.14
2024-05-09T03:18:05.559Z,53.15
2024-05-09T03:19:05.234Z,53.39
2024-05-09T03:20:09.147Z,51.63
2024-05-09T03:21:05.203Z,51.75
2024-05-09T03:22:05.132Z,52.39
2024-05-09T03:23:05.834Z,52.59
2024-05-09T03:24:05.161Z,53.12
2024-05-09T03:25:05.134Z,53.30
2024-05-09T03:26:05.257Z,53.76
2024-05-09T03:27:05.138Z,53.68
2024-05-09T03:28:05.190Z,51.99
2024-05-09T03:29:05.188Z,53.33
2024-05-09T03:30:07.348Z,52.37
2024-05-09T03:31:05.155Z,53.55
2024-05-09T03:32:05.309Z,53.76
2024-05-09T03:33:05.290Z,52.93
2024-05-09T03:34:05.352Z,52.78
2024-05-09T03:35:05.212Z,51.57
2024-05-09T03:36:08.214Z,52.69
2024-05-09T03:37:05.177Z,52.79
2024-05-09T03:38:05.224Z,52.76
2024-05-09T03:39:05.191Z,53.11
2024-05-09T03:40:09.274Z,52.67
2024-05-09T03:41:05.242Z,52.77
2024-05-09T03:42:05.241Z,53.16
2024-05-09T03:43:05.221Z,53.33
2024-05-09T03:44:05.255Z,54.01
2024-05-09T03:45:05.228Z,53.19
2024-05-09T03:46:05.239Z,53.85
2024-05-09T03:47:05.259Z,53.84
2024-05-09T03:48:05.429Z,53.84
2024-05-09T03:49:05.418Z,52.96
2024-05-09T03:50:05.879Z,52.85
2024-05-09T03:51:05.379Z,53.44
2024-05-09T03:52:05.235Z,52.47
2024-05-09T03:53:05.431Z,53.90
2024-05-09T03:54:05.229Z,51.15
2024-05-09T03:55:05.235Z,53.19
2024-05-09T03:56:05.278Z,53.56
2024-05-09T03:57:05.270Z,52.74
2024-05-09T03:58:05.269Z,52.99
2024-05-09T03:59:05.256Z,53.57
2024-05-09T04:00:07.476Z,52.03
2024-05-09T04:01:05.325Z,52.11
2024-05-09T04:02:05.310Z,52.26
2024-05-09T04:03:07.142Z,52.36
2024-05-09T04:04:05.261Z,52.12
2024-05-09T04:05:05.285Z,52.29
2024-05-09T04:06:05.244Z,52.73
2024-05-09T04:07:05.283Z,53.56
2024-05-09T04:08:05.321Z,52.59
2024-05-09T04:09:05.257Z,54.65
2024-05-09T04:10:06.781Z,53.30
2024-05-09T04:11:05.554Z,53.80
2024-05-09T04:12:05.633Z,53.46
2024-05-09T04:13:05.592Z,53.56
2024-05-09T04:14:05.529Z,53.12
2024-05-09T04:15:06.089Z,51.21
2024-05-09T04:16:05.534Z,52.10
2024-05-09T04:17:05.591Z,52.66
2024-05-09T04:18:05.799Z,53.25
2024-05-09T04:19:05.701Z,52.77
2024-05-09T04:20:08.330Z,51.94
2024-05-09T04:21:05.731Z,53.67
2024-05-09T04:22:05.671Z,53.07
2024-05-09T04:23:06.036Z,53.68
2024-05-09T04:24:05.681Z,52.61
2024-05-09T04:25:05.660Z,52.86
2024-05-09T04:26:05.720Z,53.65
2024-05-09T04:27:05.674Z,53.17
2024-05-09T04:28:05.958Z,52.69
2024-05-09T04:29:05.689Z,52.15
2024-05-09T04:30:09.846Z,52.03
2024-05-09T04:31:05.684Z,52.12
2024-05-09T04:32:05.766Z,52.42
2024-05-09T04:33:14.450Z,50.00
2024-05-09T04:34:14.122Z,50.00
2024-05-09T04:35:14.051Z,50.00
2024-05-09T04:36:13.993Z,50.00
2024-05-09T04:37:13.981Z,50.00
2024-05-09T04:38:14.985Z,50.65
2024-05-09T04:39:14.040Z,50.00
2024-05-09T04:40:24.164Z,52.14
2024-05-09T04:41:14.035Z,52.23
2024-05-09T04:42:14.028Z,51.84
2024-05-09T04:43:14.122Z,51.58
2024-05-09T04:44:14.052Z,50.83
2024-05-09T04:45:14.231Z,48.96
2024-05-09T04:46:14.065Z,51.67
2024-05-09T04:47:14.251Z,53.22
2024-05-09T04:48:14.431Z,50.60
2024-05-09T04:49:14.350Z,50.18
2024-05-09T04:50:21.174Z,53.77
2024-05-09T04:51:14.125Z,53.94
2024-05-09T04:52:14.063Z,54.33
2024-05-09T04:53:14.090Z,54.62
2024-05-09T04:54:25.996Z,54.54
2024-05-09T04:55:14.077Z,53.92
2024-05-09T04:56:14.131Z,54.66
2024-05-09T04:57:14.084Z,55.29
2024-05-09T04:58:14.087Z,54.36
2024-05-09T04:59:14.115Z,54.70
2024-05-09T05:00:14.862Z,56.31
2024-05-09T05:01:14.127Z,56.42
2024-05-09T05:02:14.190Z,56.70
2024-05-09T05:03:15.892Z,56.83
2024-05-09T05:04:14.162Z,56.39
2024-05-09T05:05:14.135Z,56.54
2024-05-09T05:06:14.092Z,56.28
2024-05-09T05:07:14.086Z,54.67
2024-05-09T05:08:14.720Z,55.82
2024-05-09T05:09:14.092Z,54.66
2024-05-09T05:10:21.422Z,53.82
2024-05-09T05:11:14.178Z,53.95
2024-05-09T05:12:14.271Z,54.54
2024-05-09T05:13:14.109Z,54.51
2024-05-09T05:14:14.162Z,55.78
2024-05-09T05:15:14.118Z,53.23
2024-05-09T05:16:14.114Z,54.58
2024-05-09T05:17:14.158Z,53.52
2024-05-09T05:18:14.192Z,52.12
2024-05-09T05:19:17.470Z,50.00
2024-05-09T05:20:17.950Z,50.17
2024-05-09T05:21:14.212Z,50.25
2024-05-09T05:22:14.120Z,50.81
2024-05-09T05:23:14.429Z,51.16
2024-05-09T05:24:14.144Z,49.51
2024-05-09T05:25:14.133Z,47.16
2024-05-09T05:26:14.196Z,51.65
2024-05-09T05:27:14.138Z,50.00
2024-05-09T05:28:14.138Z,50.33
2024-05-09T05:29:14.693Z,50.25
2024-05-09T05:30:21.163Z,52.64
2024-05-09T05:31:14.200Z,52.66
2024-05-09T05:32:14.233Z,51.90
2024-05-09T05:33:14.500Z,49.93
2024-05-09T05:34:14.180Z,45.65
2024-05-09T05:35:14.242Z,43.83
2024-05-09T05:36:14.177Z,51.28
2024-05-09T05:37:14.160Z,51.50
2024-05-09T05:38:14.364Z,50.57
2024-05-09T05:39:14.172Z,50.02
2024-05-09T05:40:24.650Z,51.15
2024-05-09T05:41:14.209Z,51.25
2024-05-09T05:42:14.168Z,51.74
2024-05-09T05:43:14.197Z,50.58
2024-05-09T05:44:14.224Z,47.79
2024-05-09T05:45:14.172Z,48.20
2024-05-09T05:46:14.179Z,51.76
2024-05-09T05:47:14.281Z,50.72
2024-05-09T05:48:14.344Z,50.00
2024-05-09T05:49:14.415Z,52.35
2024-05-09T05:50:23.809Z,51.30
2024-05-09T05:51:14.354Z,51.44
2024-05-09T05:52:14.214Z,51.76
2024-05-09T05:53:14.373Z,50.48
2024-05-09T05:54:14.222Z,48.98
2024-05-09T05:55:14.215Z,47.93
2024-05-09T05:56:14.241Z,52.25
2024-05-09T05:57:14.214Z,50.00
2024-05-09T05:58:14.242Z,49.39
2024-05-09T05:59:15.582Z,50.48
2024-05-09T06:00:21.590Z,51.20
2024-05-09T06:01:14.302Z,51.29
2024-05-09T06:02:14.328Z,51.49
2024-05-09T06:03:14.784Z,51.30
2024-05-09T06:04:14.344Z,50.48
2024-05-09T06:05:14.329Z,50.00
2024-05-09T06:06:14.321Z,51.83
2024-05-09T06:07:14.280Z,50.28
2024-05-09T06:08:14.495Z,50.00
2024-05-09T06:09:14.280Z,51.65
2024-05-09T06:10:21.260Z,50.00
2024-05-09T06:11:14.342Z,50.18
2024-05-09T06:12:14.359Z,50.94
2024-05-09T06:13:14.662Z,50.78
2024-05-09T06:14:14.318Z,51.12
2024-05-09T06:15:14.314Z,50.94
2024-05-09T06:16:14.323Z,50.84
2024-05-09T06:17:14.399Z,49.99
2024-05-09T06:18:14.580Z,50.78
2024-05-09T06:19:14.578Z,53.58
2024-05-09T06:20:20.615Z,50.29
2024-05-09T06:21:14.608Z,50.44
2024-05-09T06:22:14.334Z,51.23
2024-05-09T06:23:14.567Z,51.25
2024-05-09T06:24:14.334Z,52.94
2024-05-09T06:25:14.383Z,50.64
2024-05-09T06:26:14.356Z,50.08
2024-05-09T06:27:14.338Z,50.22
2024-05-09T06:28:14.360Z,52.44
2024-05-09T06:29:14.413Z,51.03
2024-05-09T06:30:25.280Z,53.13
2024-05-09T06:31:14.350Z,53.24
2024-05-09T06:32:14.406Z,53.25
2024-05-09T06:33:16.112Z,52.58
2024-05-09T06:34:14.471Z,53.18
2024-05-09T06:35:14.399Z,52.14
2024-05-09T06:36:14.352Z,51.38
2024-05-09T06:37:14.376Z,50.82
2024-05-09T06:38:14.533Z,51.02
2024-05-09T06:39:14.353Z,50.81
2024-05-09T06:40:17.486Z,50.06
2024-05-09T06:41:14.419Z,50.28
2024-05-09T06:42:14.355Z,50.22
2024-05-09T06:43:15.223Z,51.17
2024-05-09T06:44:14.395Z,50.12
2024-05-09T06:45:14.383Z,50.13
2024-05-09T06:46:14.383Z,50.73
2024-05-09T06:47:14.512Z,48.39
2024-05-09T06:48:14.797Z,51.58
2024-05-09T06:49:14.804Z,50.69
2024-05-09T06:50:23.247Z,52.31
2024-05-09T06:51:14.547Z,52.42
2024-05-09T06:52:14.395Z,52.74
2024-05-09T06:53:14.927Z,52.81
2024-05-09T06:54:14.399Z,50.90
2024-05-09T06:55:14.407Z,50.69
2024-05-09T06:56:14.444Z,52.14
2024-05-09T06:57:14.394Z,50.55
2024-05-09T06:58:14.401Z,52.75
2024-05-09T06:59:14.505Z,51.53
2024-05-09T07:00:22.786Z,50.67
2024-05-09T07:01:14.498Z,50.80
2024-05-09T07:02:14.565Z,51.17
2024-05-09T07:03:17.083Z,51.00
2024-05-09T07:04:14.618Z,50.85
2024-05-09T07:05:14.481Z,51.25
2024-05-09T07:06:14.533Z,51.40
2024-05-09T07:07:14.422Z,50.39
2024-05-09T07:08:14.637Z,50.86
2024-05-09T07:09:14.434Z,51.29
2024-05-09T07:10:21.955Z,52.97
2024-05-09T07:11:14.575Z,53.05
2024-05-09T07:12:14.625Z,53.33
2024-05-09T07:13:14.912Z,53.17
2024-05-09T07:14:14.582Z,53.88
2024-05-09T07:15:14.429Z,53.36
2024-05-09T07:16:14.441Z,51.84
2024-05-09T07:17:14.672Z,52.78
2024-05-09T07:18:14.703Z,50.92
2024-05-09T07:19:14.874Z,50.18
2024-05-09T07:20:23.118Z,52.18
2024-05-09T07:21:14.782Z,52.30
2024-05-09T07:22:14.479Z,52.61
2024-05-09T07:23:14.615Z,53.07
2024-05-09T07:24:14.486Z,52.90
2024-05-09T07:25:14.651Z,53.44
2024-05-09T07:26:14.565Z,51.50
2024-05-09T07:27:14.503Z,52.13
2024-05-09T07:28:14.580Z,51.04
2024-05-09T07:29:14.487Z,50.00
2024-05-09T07:30:22.886Z,50.89
2024-05-09T07:31:14.500Z,51.04
2024-05-09T07:32:14.694Z,51.42
2024-05-09T07:33:14.693Z,52.53
2024-05-09T07:34:14.823Z,53.04
2024-05-09T07:35:14.633Z,52.69
2024-05-09T07:36:14.552Z,53.52
2024-05-09T07:37:14.584Z,51.78
2024-05-09T07:38:14.733Z,51.50
2024-05-09T07:39:14.676Z,52.21
2024-05-09T07:40:24.175Z,52.74
2024-05-09T07:41:14.701Z,52.85
2024-05-09T07:42:14.511Z,53.41
2024-05-09T07:43:15.075Z,53.34
2024-05-09T07:44:14.579Z,52.54
2024-05-09T07:45:29.985Z,52.70
2024-05-09T07:48:27.114Z,52.98
2024-05-09T07:49:45.046Z,52.99
2024-05-09T07:53:29.332Z,53.06
2024-05-09T07:53:37.753Z,53.03
2024-05-09T07:54:15.054Z,53.09
2024-05-09T07:55:14.859Z,53.07
2024-05-09T07:56:14.958Z,53.53
2024-05-09T07:57:14.849Z,53.21
2024-05-09T07:58:14.604Z,54.04
2024-05-09T07:59:14.605Z,54.70
2024-05-09T08:00:20.225Z,52.94
2024-05-09T08:01:14.919Z,53.09
2024-05-09T08:02:14.688Z,53.09
2024-05-09T08:03:14.644Z,52.96
2024-05-09T08:04:14.736Z,51.82
2024-05-09T08:05:14.815Z,51.82
2024-05-09T08:06:14.757Z,48.80
2024-05-09T08:07:14.717Z,50.28
2024-05-09T08:08:14.645Z,50.74
2024-05-09T08:09:20.782Z,52.55
2024-05-09T08:10:18.799Z,52.60
2024-05-09T08:11:14.691Z,52.73
2024-05-09T08:12:14.632Z,53.20
2024-05-09T08:13:14.664Z,53.78
2024-05-09T08:14:14.640Z,53.87
2024-05-09T08:15:14.647Z,53.92
2024-05-09T08:16:14.834Z,50.50
2024-05-09T08:17:14.670Z,50.90
2024-05-09T08:18:14.774Z,51.78
2024-05-09T08:19:14.690Z,50.58
2024-05-09T08:20:22.867Z,53.67
2024-05-09T08:21:14.655Z,53.68
2024-05-09T08:22:14.678Z,53.30
2024-05-09T08:23:14.666Z,52.73
2024-05-09T08:24:14.649Z,51.01
2024-05-09T08:25:14.716Z,50.86
2024-05-09T08:26:14.660Z,53.04
2024-05-09T08:27:14.652Z,54.40
2024-05-09T08:28:14.693Z,53.04
2024-05-09T08:29:14.680Z,52.70
2024-05-09T08:30:21.951Z,55.99
2024-05-09T08:31:14.775Z,56.12
2024-05-09T08:32:14.725Z,56.59
2024-05-09T08:33:14.953Z,57.32
2024-05-09T08:34:14.906Z,57.08
2024-05-09T08:35:14.676Z,54.09
2024-05-09T08:36:14.674Z,56.36
2024-05-09T08:38:13.771Z,58.41
2024-05-09T08:39:14.692Z,59.38
2024-05-09T08:40:23.670Z,56.51
2024-05-09T08:41:14.698Z,56.66
2024-05-09T08:42:14.697Z,56.96
2024-05-09T08:43:14.849Z,58.61
2024-05-09T08:44:14.691Z,58.90
2024-05-09T08:45:14.713Z,60.19
2024-05-09T08:46:14.791Z,61.32
2024-05-09T08:47:14.714Z,59.62
2024-05-09T08:48:15.974Z,59.82
2024-05-09T08:49:14.721Z,59.95
2024-05-09T08:50:28.481Z,60.19
2024-05-09T08:51:14.787Z,59.97
2024-05-09T08:52:14.730Z,60.50
2024-05-09T08:53:14.979Z,60.40
2024-05-09T08:54:14.731Z,60.97
2024-05-09T08:55:14.787Z,59.69
2024-05-09T08:56:14.751Z,59.16
2024-05-09T08:57:14.764Z,60.52
2024-05-09T08:58:14.875Z,59.23
2024-05-09T08:59:14.748Z,59.40
2024-05-09T09:00:21.415Z,56.54
2024-05-09T09:01:14.937Z,56.70
2024-05-09T09:02:14.880Z,57.12
2024-05-09T09:03:14.842Z,56.95
2024-05-09T09:04:14.949Z,59.88
2024-05-09T09:05:14.968Z,59.84
2024-05-09T09:06:14.757Z,57.78
2024-05-09T09:07:14.809Z,57.65
2024-05-09T09:08:14.763Z,54.10
2024-05-09T09:09:14.762Z,54.84
2024-05-09T09:10:21.213Z,55.98
2024-05-09T09:11:14.832Z,56.13
2024-05-09T09:12:14.763Z,56.18
2024-05-09T09:13:14.850Z,56.41
2024-05-09T09:14:14.771Z,55.98
2024-05-09T09:15:14.795Z,55.94
2024-05-09T09:16:14.906Z,55.12
2024-05-09T09:17:14.851Z,55.34
2024-05-09T09:18:14.909Z,54.45
2024-05-09T09:19:14.949Z,56.42
2024-05-09T09:20:22.992Z,54.09
2024-05-09T09:21:14.815Z,54.13
2024-05-09T09:22:14.893Z,54.16
2024-05-09T09:23:14.806Z,54.53
2024-05-09T09:24:14.808Z,53.91
2024-05-09T09:25:14.836Z,52.51
2024-05-09T09:26:14.829Z,52.71
2024-05-09T09:27:14.829Z,52.56
2024-05-09T09:28:14.962Z,52.26
2024-05-09T09:29:14.831Z,52.81
2024-05-09T09:30:27.781Z,50.94
2024-05-09T09:31:14.868Z,51.19
2024-05-09T09:32:14.832Z,51.66
2024-05-09T09:33:14.937Z,51.43
2024-05-09T09:34:14.928Z,50.24
2024-05-09T09:35:14.826Z,50.51
2024-05-09T09:36:14.837Z,52.44
2024-05-09T09:37:14.868Z,50.42
2024-05-09T09:38:14.837Z,50.25
2024-05-09T09:39:14.849Z,50.00
2024-05-09T09:40:18.012Z,51.64
2024-05-09T09:41:14.886Z,51.74
2024-05-09T09:42:14.850Z,52.32
2024-05-09T09:43:15.271Z,53.24
2024-05-09T09:44:14.866Z,54.61
2024-05-09T09:45:14.867Z,55.26
2024-05-09T09:46:14.978Z,55.31
2024-05-09T09:47:14.899Z,54.31
2024-05-09T09:48:15.014Z,54.28
2024-05-09T09:49:15.153Z,53.05
2024-05-09T09:50:20.631Z,52.97
2024-05-09T09:51:14.872Z,53.06
2024-05-09T09:52:14.912Z,53.17
2024-05-09T09:53:14.879Z,53.16
2024-05-09T09:54:14.873Z,50.77
2024-05-09T09:55:15.018Z,49.39
2024-05-09T09:56:14.894Z,51.16
2024-05-09T09:57:14.882Z,53.09
2024-05-09T09:58:14.945Z,50.24
2024-05-09T09:59:14.895Z,51.57
2024-05-09T10:00:21.120Z,51.90
2024-05-09T10:01:14.958Z,52.00
2024-05-09T10:02:14.986Z,52.42
2024-05-09T10:03:15.039Z,52.30
2024-05-09T10:04:15.042Z,52.43
2024-05-09T10:05:14.997Z,52.50
2024-05-09T10:06:14.903Z,50.83
2024-05-09T10:07:14.972Z,53.05
2024-05-09T10:08:14.908Z,53.61
2024-05-09T10:09:14.910Z,54.28
2024-05-09T10:10:19.872Z,52.35
2024-05-09T10:11:14.946Z,52.44
2024-05-09T10:12:14.942Z,52.73
2024-05-09T10:13:14.990Z,52.92
2024-05-09T10:14:14.928Z,51.06
2024-05-09T10:15:14.931Z,52.17
2024-05-09T10:16:15.007Z,52.46
2024-05-09T10:17:15.715Z,50.48
2024-05-09T10:18:15.452Z,52.19
2024-05-09T10:19:15.023Z,51.10
2024-05-09T10:20:21.627Z,52.29
2024-05-09T10:21:14.983Z,52.44
2024-05-09T10:22:15.021Z,52.80
2024-05-09T10:23:14.942Z,53.55
2024-05-09T10:24:14.943Z,55.80
2024-05-09T10:25:15.056Z,55.14
2024-05-09T10:26:14.953Z,55.87
2024-05-09T10:27:14.947Z,54.36
2024-05-09T10:28:15.055Z,56.30
2024-05-09T10:29:14.991Z,59.52
2024-05-09T10:30:21.649Z,57.85
2024-05-09T10:31:15.353Z,57.96
2024-05-09T10:32:15.010Z,58.00
2024-05-09T10:33:15.060Z,58.10
2024-05-09T10:34:15.048Z,58.79
2024-05-09T10:35:14.990Z,58.71
2024-05-09T10:36:14.961Z,58.37
2024-05-09T10:37:15.032Z,57.00
2024-05-09T10:38:14.965Z,57.61
2024-05-09T10:39:14.958Z,55.84
2024-05-09T10:40:23.307Z,53.43
2024-05-09T10:41:14.980Z,53.58
2024-05-09T10:42:14.962Z,53.79
2024-05-09T10:43:15.045Z,53.79
2024-05-09T10:44:14.975Z,51.44
2024-05-09T10:45:14.968Z,49.58
2024-05-09T10:46:15.229Z,50.00
2024-05-09T10:47:15.051Z,50.50
2024-05-09T10:48:15.180Z,51.92
2024-05-09T10:49:15.250Z,51.26
2024-05-09T10:50:22.310Z,55.34
2024-05-09T10:51:14.991Z,55.46
2024-05-09T10:52:15.074Z,55.52
2024-05-09T10:53:15.012Z,56.34
2024-05-09T10:54:15.004Z,56.21
2024-05-09T10:55:15.084Z,55.73
2024-05-09T10:56:15.045Z,60.27
2024-05-09T10:57:14.999Z,59.45
2024-05-09T10:58:15.088Z,56.64
2024-05-09T10:59:15.016Z,59.97
2024-05-09T11:00:23.327Z,61.71
2024-05-09T11:01:15.071Z,61.80
2024-05-09T11:02:15.246Z,62.38
2024-05-09T11:03:15.066Z,63.15
2024-05-09T11:04:15.339Z,62.29
2024-05-09T11:05:15.149Z,64.53
2024-05-09T11:06:15.024Z,64.99
2024-05-09T11:07:15.047Z,66.97
2024-05-09T11:08:15.026Z,66.21
2024-05-09T11:09:15.048Z,64.03
2024-05-09T11:10:20.707Z,63.25
2024-05-09T11:11:15.094Z,63.40
2024-05-09T11:12:15.041Z,63.90
2024-05-09T11:13:15.118Z,64.93
2024-05-09T11:14:15.055Z,64.75
2024-05-09T11:15:15.053Z,66.85
2024-05-09T11:16:15.126Z,66.72
2024-05-09T11:17:15.074Z,67.71
2024-05-09T11:18:15.120Z,67.80
2024-05-09T11:19:15.380Z,67.21
2024-05-09T11:20:22.726Z,69.75
2024-05-09T11:21:15.052Z,69.84
2024-05-09T11:22:15.114Z,69.88
2024-05-09T11:23:15.049Z,69.98
2024-05-09T11:24:15.046Z,70.93
2024-05-09T11:25:15.153Z,71.18
2024-05-09T11:26:15.052Z,69.60
2024-05-09T11:27:15.059Z,71.84
2024-05-09T11:28:15.197Z,69.55
2024-05-09T11:29:18.694Z,71.77
2024-05-09T11:30:23.771Z,71.97
2024-05-09T11:31:15.118Z,71.94
2024-05-09T11:32:15.108Z,72.29
2024-05-09T11:33:15.106Z,72.52
2024-05-09T11:34:15.123Z,73.91
2024-05-09T11:35:15.066Z,73.51
2024-05-09T11:36:15.091Z,72.16
2024-05-09T11:37:15.193Z,69.60
2024-05-09T11:38:15.132Z,68.74
2024-05-09T11:39:15.122Z,69.57
2024-05-09T11:40:21.454Z,69.38
2024-05-09T11:41:15.095Z,69.47
2024-05-09T11:42:15.079Z,69.50
2024-05-09T11:43:15.164Z,68.01
2024-05-09T11:44:15.083Z,68.23
2024-05-09T11:45:15.078Z,67.35
2024-05-09T11:46:15.319Z,65.58
2024-05-09T11:47:15.138Z,65.16
2024-05-09T11:48:15.284Z,66.21
2024-05-09T11:49:15.123Z,68.56
2024-05-09T11:50:22.567Z,68.18
2024-05-09T11:51:15.097Z,68.40
2024-05-09T11:52:15.170Z,69.17
2024-05-09T11:53:15.105Z,70.38
2024-05-09T11:54:15.096Z,72.48
2024-05-09T11:55:15.206Z,70.99
2024-05-09T11:56:15.109Z,69.22
2024-05-09T11:57:15.138Z,65.42
2024-05-09T11:58:15.153Z,63.05
2024-05-09T11:59:15.113Z,66.25
2024-05-09T12:00:24.505Z,66.09
2024-05-09T12:01:15.229Z,66.24
2024-05-09T12:02:15.223Z,67.36
2024-05-09T12:03:15.240Z,69.22
2024-05-09T12:04:15.372Z,69.42
2024-05-09T12:05:15.325Z,70.75
2024-05-09T12:06:15.157Z,68.67
2024-05-09T12:07:15.171Z,68.54
2024-05-09T12:08:15.121Z,68.98
2024-05-09T12:09:15.129Z,63.84
2024-05-09T12:10:19.809Z,62.72
2024-05-09T12:11:15.217Z,62.78
2024-05-09T12:12:15.142Z,62.91
2024-05-09T12:13:15.202Z,61.45
2024-05-09T12:14:15.140Z,61.90
2024-05-09T12:15:15.160Z,63.35
2024-05-09T12:16:15.241Z,64.58
2024-05-09T12:17:15.182Z,63.33
2024-05-09T12:18:15.256Z,62.68
2024-05-09T12:19:15.177Z,65.31
2024-05-09T12:20:21.518Z,66.74
2024-05-09T12:21:15.163Z,66.84
2024-05-09T12:22:15.190Z,67.49
2024-05-09T12:23:15.183Z,67.83
2024-05-09T12:24:18.355Z,67.39
2024-05-09T12:25:15.299Z,66.91
2024-05-09T12:26:15.168Z,66.99
2024-05-09T12:27:15.167Z,67.19
2024-05-09T12:28:15.291Z,67.48
2024-05-09T12:29:15.211Z,67.33
2024-05-09T12:30:24.460Z,68.15
2024-05-09T12:31:15.232Z,68.27
2024-05-09T12:32:15.198Z,68.37
2024-05-09T12:33:15.339Z,65.65
2024-05-09T12:34:15.277Z,62.21
2024-05-09T12:35:15.225Z,59.64
2024-05-09T12:36:15.199Z,54.44
2024-05-09T12:37:15.296Z,55.29
2024-05-09T12:38:15.568Z,55.28
2024-05-09T12:39:15.217Z,55.55
2024-05-09T12:40:22.956Z,56.30
2024-05-09T12:41:15.216Z,56.41
2024-05-09T12:42:26.359Z,57.04
2024-05-09T12:43:15.236Z,56.65
2024-05-09T12:44:15.206Z,57.68
2024-05-09T12:45:15.308Z,58.02
2024-05-09T12:46:15.363Z,58.68
2024-05-09T12:47:15.248Z,61.63
2024-05-09T12:48:15.385Z,56.68
2024-05-09T12:49:17.317Z,55.05
2024-05-09T12:50:22.367Z,55.27
2024-05-09T12:51:15.237Z,55.30
2024-05-09T12:52:15.330Z,56.36
2024-05-09T12:53:15.236Z,56.55
2024-05-09T12:54:15.273Z,55.11
2024-05-09T12:55:15.427Z,55.63
2024-05-09T12:56:15.286Z,55.70
2024-05-09T12:57:15.264Z,58.10